Pagrindinis puslapis
METAR-TAF:

METAR-TAF

Oro uostai :

Šeleftėjas, Švedija

platuma: 64-38N, ilguma: 021-05E, Aukštis: 49 m

Dabartinis oras

Ataskaita buvo paskelbta 25 minutes, ne 03:20 UTC
Vėjas 2 kt nuo kintamojo kryptimis
Temperatūra -9°C
Drėgmė 92%
Slėgis 1016 hPa
Matomumas 10 km arba daugiau

METAR: ESNS 190320Z AUTO VRB02KT 9999 NCD M09/M10 Q1016

Laikas: 05:45 (03:45 UTC)

Prognozė

Ataskaita buvo paskelbta 15 minutes, ne 03:30 UTC
Prognozė galioja nuo 19 metu 04 UTC su 19 metu 12 UTC
Vėjas 2 kt nuo kintamojo kryptimis
Matomumas 10 km arba daugiau
nėra debesų žemiau 1500 m ir nėra kamuolinių lietaus debesų

TAF: ESNS 190330Z 1904/1912 VRB02KT CAVOK

Orai ataskaitas ir orų prognozės (METAR, TAF).

turimą stotys yra geltonos ir raudonos taškus žemėlapyje.

Perkelti pele per norėdami pamatyti stoties vardą.

Tada spustelėkite, norėdami matyti oro stebėjimo ir prognozės.

Norėdami pakeisti žemėlapį: spustelėkite ant žalios mygtukų su juodo kryžiaus žemyn,; žalią mygtuką su brūkšneliu, jei norite nutolinti; arba žalių rodyklių gretimoms žemėlapius.


METAR-TAF: